Time;durP1;ratioP1;P1;durP2;ratioP2;P2;SDS_P1;SDS_P2;PMS_P1;PMS_P2;Temp;Humidity;BMP_temperature;BMP_pressure;BME280_temperature;BME280_humidity;BME280_pressure;Samples;Min_cycle;Max_cycle;Signal;HPM_P1;HPM_P2
2022/06/17 00:01:33;;;;;;;4.12;2.90;;;;;;;17.02;55.57;100414.03;1682197;83;20440;-75
2022/06/17 00:03:59;;;;;;;3.45;3.15;;;;;;;16.92;56.07;100411.08;1684530;83;21026;-73
2022/06/17 00:06:37;;;;;;;3.70;3.15;;;;;;;16.88;56.46;100414.75;1676816;83;21137;-74
2022/06/17 00:09:06;;;;;;;3.17;3.05;;;;;;;16.76;56.85;100412.48;1684593;82;21030;-81
2022/06/17 00:11:37;;;;;;;4.75;2.98;;;;;;;16.76;56.85;100412.48;1680875;82;21284;-80
2022/06/17 00:14:11;;;;;;;3.83;3.33;;;;;;;16.68;56.73;100419.54;1663088;84;21586;-79
2022/06/17 00:16:39;;;;;;;5.40;3.35;;;;;;;16.68;56.73;100419.54;1654366;85;21075;-82
2022/06/17 00:19:07;;;;;;;6.25;3.45;;;;;;;16.60;57.93;100416.64;1650572;84;21065;-72
2022/06/17 00:21:45;;;;;;;4.22;3.10;;;;;;;16.55;57.82;100418.64;1659987;85;21109;-72
2022/06/17 00:24:19;;;;;;;3.27;3.08;;;;;;;16.55;57.82;100418.64;1685171;83;21080;-71
2022/06/17 00:26:47;;;;;;;4.05;3.72;;;;;;;16.55;58.27;100420.52;1663448;84;21104;-73
2022/06/17 00:29:18;;;;;;;6.20;3.25;;;;;;;16.53;58.20;100412.67;1684180;83;21034;-74
2022/06/17 00:31:46;;;;;;;6.87;3.50;;;;;;;16.50;58.55;100422.56;1678612;83;21032;-74
2022/06/17 00:34:12;;;;;;;4.05;3.75;;;;;;;16.44;58.75;100416.70;1690695;82;21045;-74
2022/06/17 00:36:42;;;;;;;4.22;3.22;;;;;;;16.07;59.35;100366.16;1680070;83;21540;-73
2022/06/17 00:39:18;;;;;;;4.10;3.77;;;;;;;16.35;59.60;100412.17;1691225;83;21077;-76
2022/06/17 00:41:49;;;;;;;3.37;3.17;;;;;;;16.31;59.37;100408.30;1673724;83;21053;-77
2022/06/17 00:44:38;;;;;;;3.65;3.35;;;;;;;16.28;60.02;100406.04;1671234;82;21121;-81
2022/06/17 00:47:30;;;;;;;3.83;3.52;;;;;;;16.25;59.84;100408.36;1669924;84;21124;-78
2022/06/17 00:50:13;;;;;;;3.58;3.22;;;;;;;16.21;60.08;100403.95;1661173;84;21194;-75
2022/06/17 00:52:45;;;;;;;3.62;3.33;;;;;;;16.18;60.42;100404.41;1660026;84;21156;-70
2022/06/17 00:55:32;;;;;;;3.15;2.85;;;;;;;16.20;60.58;100404.16;1664279;83;21084;-71
2022/06/17 00:58:03;;;;;;;3.87;2.75;;;;;;;16.20;60.82;100400.13;1644519;84;21092;-73
2022/06/17 01:00:32;;;;;;;6.05;3.45;;;;;;;16.20;61.02;100400.97;1648809;85;21087;-73
2022/06/17 01:03:04;;;;;;;5.40;3.60;;;;;;;16.19;60.96;100400.66;1646004;84;21141;-74
2022/06/17 01:05:39;;;;;;;4.03;3.70;;;;;;;16.18;61.29;100404.91;1651187;85;21038;-83
2022/06/17 01:09:56;;;;;;;2.90;2.70;;;;;;;16.15;61.06;100398.12;1655007;85;21098;-81
2022/06/17 01:10:48;;;;;;;3.17;2.92;;;;;;;16.12;61.19;100398.56;1649254;84;21105;-80
2022/06/17 01:13:15;;;;;;;3.90;3.17;;;;;;;16.09;61.65;100398.49;1650078;85;21024;-83
2022/06/17 01:15:44;;;;;;;6.37;3.83;;;;;;;16.10;61.73;100393.93;1669263;84;21195;-76
2022/06/17 01:18:13;;;;;;;4.28;3.67;;;;;;;16.10;61.29;100395.27;1670092;84;21092;-72
2022/06/17 01:20:42;;;;;;;4.55;3.40;;;;;;;16.10;61.37;100388.02;1670715;84;21128;-72
2022/06/17 01:23:13;;;;;;;4.87;3.70;;;;;;;16.12;61.46;100387.80;1672493;84;21572;-72
2022/06/17 01:25:43;;;;;;;4.70;3.92;;;;;;;16.12;61.55;100391.34;1664128;84;21193;-75
2022/06/17 01:28:16;;;;;;;4.50;4.10;;;;;;;16.11;61.54;100395.05;1670085;84;21126;-81
2022/06/17 01:30:50;;;;;;;9.08;3.77;;;;;;;16.09;61.79;100387.73;1673344;84;21084;-78
2022/06/17 01:33:22;;;;;;;4.15;3.83;;;;;;;16.08;61.54;100396.84;1667582;84;21100;-86
2022/06/17 01:36:14;;;;;;;4.05;3.75;;;;;;;16.03;61.53;100394.02;1670357;84;21139;-79
2022/06/17 01:38:44;;;;;;;6.35;3.67;;;;;;;16.02;61.90;100389.67;1662787;84;21643;-85
2022/06/17 01:41:14;;;;;;;4.58;3.65;;;;;;;16.03;61.93;100385.11;1672005;84;21122;-81
2022/06/17 01:43:54;;;;;;;3.80;3.27;;;;;;;16.04;62.24;100384.08;1671396;84;21587;-76
2022/06/17 01:46:42;;;;;;;5.62;3.62;;;;;;;16.06;62.24;100385.48;1671701;83;21641;-78
2022/06/17 01:49:30;;;;;;;10.43;3.95;;;;;;;16.04;62.01;100384.89;1667091;84;21152;-86
2022/06/17 01:52:08;;;;;;;4.10;3.80;;;;;;;16.02;62.17;100384.30;1637867;84;21104;-84
2022/06/17 01:54:40;;;;;;;3.90;3.60;;;;;;;16.00;62.41;100386.39;1672032;84;21048;-76
2022/06/17 01:57:09;;;;;;;4.28;3.80;;;;;;;15.99;62.39;100388.77;1650733;83;21581;-79
2022/06/17 01:59:43;;;;;;;4.17;3.42;;;;;;;16.01;62.29;100385.36;1651609;85;21515;-84
2022/06/17 02:02:15;;;;;;;6.08;4.40;;;;;;;16.03;62.14;100388.64;1636946;85;21086;-82
2022/06/17 02:04:46;;;;;;;4.37;4.08;;;;;;;16.02;62.28;100383.48;1647523;85;20984;-78
2022/06/17 02:07:21;;;;;;;4.65;3.80;;;;;;;16.04;62.05;100382.20;1632924;85;22554;-73
2022/06/17 02:09:48;;;;;;;5.85;4.00;;;;;;;16.06;62.20;100378.77;1631667;85;21551;-70
2022/06/17 02:12:20;;;;;;;5.87;3.60;;;;;;;16.07;62.32;100376.92;1637834;85;21075;-79
2022/06/17 02:14:54;;;;;;;4.25;3.80;;;;;;;16.09;62.25;100375.64;1633421;85;21102;-78
2022/06/17 02:17:43;;;;;;;4.47;4.00;;;;;;;16.13;62.29;100372.80;1632901;85;21588;-79
2022/06/17 02:20:25;;;;;;;4.12;3.80;;;;;;;16.24;62.45;100369.08;1637400;85;21581;-77
2022/06/17 02:22:53;;;;;;;5.12;4.60;;;;;;;16.45;62.04;100364.56;1638844;84;22308;-77
2022/06/17 02:25:27;;;;;;;5.58;4.20;;;;;;;16.77;61.44;100362.19;1653117;84;21006;-81
2022/06/17 02:28:01;;;;;;;7.30;4.72;;;;;;;17.21;59.65;100366.84;1664982;84;21061;-78
2022/06/17 02:30:30;;;;;;;9.43;3.98;;;;;;;17.70;57.79;100356.68;1652639;84;21085;-80
2022/06/17 02:33:02;;;;;;;5.70;4.10;;;;;;;18.19;56.05;100353.72;1655718;84;21116;-75
2022/06/17 02:35:37;;;;;;;6.17;3.95;;;;;;;18.58;54.58;100353.42;1662222;84;21077;-79
2022/06/17 02:38:05;;;;;;;11.57;4.42;;;;;;;18.94;54.25;100351.94;1655845;84;21068;-78
2022/06/17 02:40:39;;;;;;;5.12;3.10;;;;;;;19.31;53.49;100346.05;1655834;84;21069;-78
2022/06/17 02:43:20;;;;;;;4.03;2.92;;;;;;;19.64;52.04;100345.21;1658441;83;21104;-82
2022/06/17 02:45:51;;;;;;;5.20;2.47;;;;;;;19.97;49.37;100343.55;1632559;83;21177;-78
2022/06/17 02:48:25;;;;;;;4.58;2.80;;;;;;;20.33;48.32;100344.80;1627858;85;21515;-80
2022/06/17 02:50:55;;;;;;;3.40;3.10;;;;;;;20.76;46.81;100340.97;1640561;85;21111;-80
2022/06/17 02:53:32;;;;;;;4.72;2.52;;;;;;;21.17;45.25;100338.59;1628284;85;21118;-82
2022/06/17 02:56:02;;;;;;;4.17;3.10;;;;;;;21.39;44.63;100348.80;1639254;84;21100;-82
2022/06/17 02:58:44;;;;;;;4.40;3.30;;;;;;;21.50;44.13;100341.59;1662017;84;21148;-83
2022/06/17 03:01:23;;;;;;;7.03;3.80;;;;;;;21.55;45.13;100344.90;1679720;83;21058;-71
2022/06/17 03:03:55;;;;;;;3.58;2.62;;;;;;;21.54;45.55;100347.31;1668124;84;21611;-76
2022/06/17 03:06:34;;;;;;;3.55;3.17;;;;;;;21.52;46.64;100342.70;1684602;84;21144;-80
2022/06/17 03:09:19;;;;;;;5.42;3.15;;;;;;;21.40;46.33;100340.15;1665888;85;21159;-82
2022/06/17 03:11:51;;;;;;;4.72;2.80;;;;;;;21.25;47.07;100346.27;1631602;86;22212;-84
2022/06/17 03:14:21;;;;;;;3.33;3.00;;;;;;;21.10;46.27;100340.19;1638831;86;21115;-84
2022/06/17 03:16:52;;;;;;;3.15;2.92;;;;;;;21.06;46.19;100339.59;1642347;85;21539;-81
2022/06/17 03:19:20;;;;;;;3.67;3.42;;;;;;;21.04;45.89;100341.73;1627603;86;21028;-83
2022/06/17 03:21:46;;;;;;;3.87;3.33;;;;;;;21.00;45.30;100337.38;1624481;86;21653;-81
2022/06/17 03:24:30;;;;;;;3.90;3.50;;;;;;;20.97;45.67;100340.61;1628293;86;21577;-82
2022/06/17 03:27:09;;;;;;;2.65;2.42;;;;;;;20.90;45.77;100340.81;1645298;85;21612;-81
2022/06/17 03:29:38;;;;;;;8.30;3.83;;;;;;;20.75;45.92;100339.31;1595680;87;21037;-82
2022/06/17 03:32:10;;;;;;;3.37;2.60;;;;;;;20.65;46.03;100340.58;1607202;88;21086;-76
2022/06/17 03:34:42;;;;;;;2.67;2.50;;;;;;;20.53;45.81;100340.67;1622200;86;21084;-80
2022/06/17 03:37:23;;;;;;;5.72;2.58;;;;;;;20.51;45.24;100334.19;1602943;87;21456;-85
2022/06/17 03:39:55;;;;;;;4.37;3.33;;;;;;;20.49;45.37;100336.30;1599302;88;21130;-82
2022/06/17 03:42:45;;;;;;;4.53;2.92;;;;;;;20.44;45.40;100336.27;1590453;87;21065;-83
2022/06/17 03:45:24;;;;;;;5.05;2.62;;;;;;;20.43;45.57;100337.33;1632592;87;21626;-87
2022/06/17 03:48:03;;;;;;;6.92;3.37;;;;;;;20.42;45.61;100331.09;1628570;86;21126;-77
2022/06/17 03:50:37;;;;;;;5.47;2.77;;;;;;;20.52;45.69;100330.94;1636777;87;21089;-80
2022/06/17 03:53:22;;;;;;;3.65;2.90;;;;;;;20.70;45.85;100323.84;1640509;86;21043;-76
2022/06/17 03:55:52;;;;;;;5.85;3.08;;;;;;;20.84;45.25;100328.30;1649414;84;21584;-72
2022/06/17 03:58:20;;;;;;;4.40;3.47;;;;;;;20.95;45.44;100329.22;1683451;83;21056;-73
2022/06/17 04:01:02;;;;;;;4.75;3.55;;;;;;;21.06;44.97;100328.75;1672804;85;20991;-71
2022/06/17 04:03:35;;;;;;;5.72;3.25;;;;;;;21.16;45.15;100332.37;1662089;85;21046;-73
2022/06/17 04:06:08;;;;;;;3.92;3.42;;;;;;;21.18;45.17;100330.21;1640896;85;21058;-77
2022/06/17 04:09:01;;;;;;;8.78;3.58;;;;;;;21.15;46.09;100328.55;1650502;85;21604;-72
2022/06/17 04:11:37;;;;;;;10.55;4.67;;;;;;;21.07;46.23;100330.40;1653691;85;22047;-78
2022/06/17 04:14:23;;;;;;;6.47;3.20;;;;;;;20.98;45.69;100331.39;1615504;86;21121;-85
2022/06/17 04:17:15;;;;;;;10.78;3.50;;;;;;;20.94;46.42;100326.22;1602848;86;21387;-79
2022/06/17 04:19:48;;;;;;;4.62;3.52;;;;;;;20.92;45.85;100325.66;1610936;86;21651;-74
2022/06/17 04:22:27;;;;;;;8.80;4.40;;;;;;;20.95;46.05;100324.61;1617252;86;21877;-79
2022/06/17 04:25:02;;;;;;;6.55;3.50;;;;;;;21.18;46.89;100332.11;1664946;85;21090;-75
2022/06/17 04:27:56;;;;;;;9.30;4.92;;;;;;;21.50;45.80;100333.46;1693119;83;21111;-74
2022/06/17 04:29:59;;;;;;;7.47;4.72;;;;;;;21.82;45.17;100327.14;1681950;85;21119;-75
2022/06/17 04:32:31;;;;;;;11.80;4.17;;;;;;;22.10;44.46;100327.82;1695367;83;21047;-76
2022/06/17 04:34:59;;;;;;;5.25;4.50;;;;;;;22.34;44.06;100325.50;1686799;84;21614;-76
2022/06/17 04:37:26;;;;;;;7.05;4.65;;;;;;;22.53;43.67;100325.81;1684791;84;21119;-75
2022/06/17 04:40:39;;;;;;;5.50;4.53;;;;;;;22.69;43.35;100324.74;1690692;84;21088;-75
2022/06/17 04:43:28;;;;;;;10.05;4.28;;;;;;;22.89;43.13;100319.88;1682656;84;21075;-73
2022/06/17 04:46:01;;;;;;;8.63;4.22;;;;;;;23.08;43.33;100320.74;1694466;83;21532;-75
2022/06/17 04:48:27;;;;;;;9.25;4.42;;;;;;;23.31;43.08;100314.73;1691993;84;22267;-72
2022/06/17 04:50:55;;;;;;;8.35;4.37;;;;;;;23.53;42.45;100313.62;1695933;83;21047;-70
2022/06/17 04:53:25;;;;;;;7.75;4.53;;;;;;;23.83;42.48;100314.67;1670148;85;21023;-70
2022/06/17 04:55:53;;;;;;;8.35;4.30;;;;;;;24.24;41.68;100313.95;1688888;84;21526;-71
2022/06/17 04:58:33;;;;;;;6.90;4.60;;;;;;;24.73;41.10;100310.93;1691246;83;21050;-71
2022/06/17 05:01:01;;;;;;;6.80;4.45;;;;;;;25.22;40.32;100307.81;1691032;83;21574;-71
2022/06/17 05:03:38;;;;;;;11.88;5.25;;;;;;;25.62;39.43;100315.37;1698843;83;21015;-70
2022/06/17 05:06:17;;;;;;;5.35;4.53;;;;;;;25.83;39.06;100307.20;1662740;85;21154;-71
2022/06/17 05:08:49;;;;;;;3.85;3.42;;;;;;;25.97;40.31;100310.63;1695622;83;21102;-70
2022/06/17 05:11:26;;;;;;;5.75;3.05;;;;;;;26.15;38.36;100301.66;1685546;83;21031;-70
2022/06/17 05:14:03;;;;;;;6.50;2.95;;;;;;;26.23;37.53;100302.35;1694741;83;21169;-72
2022/06/17 05:16:30;;;;;;;3.80;3.10;;;;;;;26.30;36.97;100303.37;1690139;83;21015;-70
2022/06/17 05:18:57;;;;;;;3.35;1.82;;;;;;;26.50;37.42;100304.98;1670276;85;20991;-71
2022/06/17 05:21:26;;;;;;;2.72;1.42;;;;;;;26.66;36.16;100303.44;1668723;84;21634;-72
2022/06/17 05:23:57;;;;;;;3.17;1.40;;;;;;;26.76;34.31;100299.97;1650430;84;21063;-73
2022/06/17 05:26:25;;;;;;;4.97;1.72;;;;;;;26.90;33.67;100294.56;1692781;83;21108;-71
2022/06/17 05:28:52;;;;;;;4.85;1.25;;;;;;;26.99;33.65;100299.62;1705402;83;21057;-74
2022/06/17 05:31:24;;;;;;;3.33;1.52;;;;;;;27.09;33.68;100298.63;1687378;83;20944;-70
2022/06/17 05:33:52;;;;;;;1.85;1.17;;;;;;;27.25;33.47;100286.04;1694838;82;20943;-70
2022/06/17 05:36:18;;;;;;;3.90;1.12;;;;;;;27.37;33.57;100285.03;1698975;83;21015;-71
2022/06/17 05:38:45;;;;;;;1.62;1.25;;;;;;;27.41;32.70;100283.84;1694327;83;21115;-71
2022/06/17 05:41:17;;;;;;;3.02;1.57;;;;;;;27.41;32.64;100283.31;1689340;83;22171;-71
2022/06/17 05:43:43;;;;;;;4.30;1.22;;;;;;;27.51;32.38;100290.52;1696920;83;21128;-70
2022/06/17 05:46:12;;;;;;;1.77;1.55;;;;;;;27.53;31.32;100291.02;1680189;83;21003;-72
2022/06/17 05:48:44;;;;;;;3.42;0.95;;;;;;;27.38;31.90;100287.45;1700372;83;21077;-73
2022/06/17 05:51:21;;;;;;;4.28;1.00;;;;;;;27.34;31.99;100285.06;1675926;83;21067;-73
2022/06/17 05:53:52;;;;;;;3.45;1.00;;;;;;;27.26;31.66;100280.86;1682722;83;21001;-73
2022/06/17 05:56:23;;;;;;;2.05;0.80;;;;;;;27.14;31.92;100284.86;1709761;83;20980;-76
2022/06/17 05:58:50;;;;;;;3.45;1.10;;;;;;;27.14;32.53;100281.30;1711934;83;21131;-77
2022/06/17 06:01:16;;;;;;;5.70;1.20;;;;;;;27.25;32.05;100277.30;1697723;83;21091;-74
2022/06/17 06:03:43;;;;;;;2.90;0.95;;;;;;;27.54;31.56;100277.59;1693171;84;21190;-72
2022/06/17 06:06:09;;;;;;;2.22;1.00;;;;;;;27.77;30.43;100277.94;1667757;84;21011;-74
2022/06/17 06:08:36;;;;;;;3.65;1.17;;;;;;;27.82;30.04;100276.20;1685695;84;21091;-77
2022/06/17 06:11:09;;;;;;;1.60;0.60;;;;;;;27.73;30.47;100272.02;1694241;83;21051;-70
2022/06/17 06:13:38;;;;;;;3.55;1.57;;;;;;;27.48;29.94;100277.42;1684965;83;21120;-81
2022/06/17 06:16:05;;;;;;;2.60;1.02;;;;;;;27.18;31.19;100274.94;1693565;84;21023;-76
2022/06/17 06:18:39;;;;;;;3.95;0.53;;;;;;;26.90;31.04;100271.33;1688265;84;21071;-75
2022/06/17 06:21:17;;;;;;;2.30;0.78;;;;;;;26.67;31.19;100273.61;1692067;83;21107;-78
2022/06/17 06:23:44;;;;;;;5.42;0.60;;;;;;;26.65;31.19;100269.00;1701519;82;21062;-71
2022/06/17 06:26:17;;;;;;;4.78;0.50;;;;;;;26.75;30.33;100275.13;1696432;82;21042;-75
2022/06/17 06:28:46;;;;;;;1.70;0.60;;;;;;;26.77;30.80;100274.27;1695851;82;21190;-74
2022/06/17 06:31:27;;;;;;;2.37;0.75;;;;;;;26.75;31.21;100278.42;1704942;82;21038;-72
2022/06/17 06:33:55;;;;;;;2.22;0.35;;;;;;;26.89;31.44;100271.05;1705962;82;21083;-71
2022/06/17 06:36:24;;;;;;;2.58;0.45;;;;;;;27.13;30.36;100268.75;1701477;82;21547;-72
2022/06/17 06:38:52;;;;;;;2.95;0.55;;;;;;;27.36;29.60;100264.24;1703506;82;21086;-69
2022/06/17 06:41:21;;;;;;;4.35;0.37;;;;;;;27.53;29.55;100267.19;1636907;85;21129;-70
2022/06/17 06:43:49;;;;;;;5.55;0.70;;;;;;;27.54;28.75;100272.13;1699196;82;21101;-69
2022/06/17 06:46:35;;;;;;;3.05;0.80;;;;;;;27.34;29.19;100257.70;1693641;82;21082;-75
2022/06/17 06:49:02;;;;;;;2.72;0.68;;;;;;;27.24;29.38;100258.41;1709741;82;21138;-83
2022/06/17 06:51:31;;;;;;;4.10;0.50;;;;;;;27.19;29.84;100257.95;1717329;82;21081;-80
2022/06/17 06:53:58;;;;;;;4.15;0.30;;;;;;;27.14;29.26;100259.41;1704872;82;21061;-77
2022/06/17 06:56:24;;;;;;;1.75;0.47;;;;;;;26.98;29.50;100259.69;1701296;82;21140;-79
2022/06/17 06:58:51;;;;;;;1.52;0.28;;;;;;;26.78;28.75;100265.50;1716386;82;21027;-73
2022/06/17 07:01:19;;;;;;;2.75;0.30;;;;;;;26.58;28.83;100266.63;1712480;82;21200;-75
2022/06/17 07:03:46;;;;;;;3.90;0.30;;;;;;;26.53;28.56;100263.40;1705779;82;21558;-77
2022/06/17 07:06:14;;;;;;;2.22;0.50;;;;;;;26.41;26.91;100263.06;1711737;82;21035;-75
2022/06/17 07:08:41;;;;;;;1.20;0.30;;;;;;;26.20;28.39;100260.62;1717631;82;21126;-79
2022/06/17 07:11:08;;;;;;;6.62;0.62;;;;;;;26.06;29.41;100262.44;1710618;82;21121;-75
2022/06/17 07:13:36;;;;;;;1.57;0.20;;;;;;;25.97;29.18;100258.73;1704228;82;22279;-75
2022/06/17 07:16:06;;;;;;;1.40;0.20;;;;;;;25.91;29.07;100263.42;1710627;82;21078;-73
2022/06/17 07:18:36;;;;;;;2.02;0.20;;;;;;;25.95;29.13;100263.13;1701881;82;21137;-75
2022/06/17 07:21:06;;;;;;;5.08;0.20;;;;;;;26.01;28.71;100262.50;1682969;83;21157;-77
2022/06/17 07:23:38;;;;;;;1.45;0.37;;;;;;;26.09;28.66;100265.97;1700304;82;21077;-84
2022/06/17 07:26:24;;;;;;;5.08;0.35;;;;;;;26.22;28.51;100265.23;1684694;82;21094;-81
2022/06/17 07:28:54;;;;;;;1.75;0.30;;;;;;;26.41;28.76;100269.33;1697813;82;21103;-76
2022/06/17 07:31:22;;;;;;;0.72;0.20;;;;;;;26.76;29.01;100270.45;1707388;82;21045;-75
2022/06/17 07:33:48;;;;;;;1.37;0.10;;;;;;;27.10;28.03;100263.86;1702585;82;22279;-76
2022/06/17 07:42:04;;;;;;;1.02;0.10;;;;;;;26.96;27.19;100263.28;1694171;82;21016;-81
2022/06/17 07:44:31;;;;;;;1.07;0.45;;;;;;;26.96;27.54;100260.55;1713134;82;21153;-77
2022/06/17 07:46:57;;;;;;;2.40;0.20;;;;;;;26.98;27.57;100263.79;1717075;82;21180;-76
2022/06/17 07:49:24;;;;;;;0.68;0.23;;;;;;;27.02;27.58;100264.56;1712575;82;21043;-77
2022/06/17 07:51:50;;;;;;;1.10;0.20;;;;;;;26.92;26.60;100262.27;1707810;82;21034;-76
2022/06/17 07:54:17;;;;;;;3.10;0.30;;;;;;;26.66;26.56;100263.23;1693946;82;21224;-82
2022/06/17 07:56:43;;;;;;;0.78;0.10;;;;;;;26.46;27.48;100269.79;1676559;83;21134;-80
2022/06/17 07:59:11;;;;;;;4.80;0.23;;;;;;;26.30;27.05;100277.97;1661637;84;21174;-75
2022/06/17 08:01:37;;;;;;;5.17;0.10;;;;;;;26.08;27.75;100267.05;1668563;83;21487;-78
2022/06/17 08:04:04;;;;;;;0.47;0.40;;;;;;;26.00;27.74;100256.80;1683830;85;22251;-79
2022/06/17 08:06:31;;;;;;;2.60;0.35;;;;;;;26.06;28.16;100258.34;1694218;85;21051;-77
2022/06/17 08:08:58;;;;;;;1.12;0.13;;;;;;;26.22;28.26;100256.23;1690135;84;21478;-78
2022/06/17 08:11:24;;;;;;;4.33;0.35;;;;;;;26.34;27.78;100256.58;1681115;82;21011;-79
2022/06/17 08:13:50;;;;;;;3.77;0.42;;;;;;;26.34;27.66;100265.34;1670788;84;21103;-76
2022/06/17 08:16:17;;;;;;;1.35;0.10;;;;;;;26.26;27.55;100262.72;1678140;83;21068;-81
2022/06/17 08:18:43;;;;;;;2.47;0.20;;;;;;;26.17;27.60;100258.47;1675798;85;21604;-76
2022/06/17 08:21:11;;;;;;;0.37;0.10;;;;;;;26.12;27.82;100258.53;1676131;85;21182;-79
2022/06/17 08:23:39;;;;;;;2.67;0.10;;;;;;;26.14;27.86;100252.21;1680551;84;21087;-80
2022/06/17 08:26:06;;;;;;;1.95;0.10;;;;;;;26.23;27.70;100251.81;1674512;85;21493;-78
2022/06/17 08:28:32;;;;;;;2.75;0.30;;;;;;;26.33;27.79;100254.95;1686047;85;21062;-83
2022/06/17 08:30:58;;;;;;;1.20;0.10;;;;;;;26.46;27.91;100261.59;1684292;84;21042;-78
2022/06/17 08:33:29;;;;;;;1.40;0.10;;;;;;;26.49;27.07;100241.88;1673874;82;20987;-79
2022/06/17 08:36:09;;;;;;;1.07;0.10;;;;;;;26.38;26.90;100256.80;1677771;84;21028;-77
2022/06/17 08:38:41;;;;;;;1.55;0.20;;;;;;;26.15;26.14;100254.41;1675221;85;21093;-77
2022/06/17 08:41:30;;;;;;;0.82;0.10;;;;;;;25.96;26.60;100253.03;1674748;85;21039;-75
2022/06/17 08:44:08;;;;;;;2.47;0.10;;;;;;;25.88;26.89;100260.46;1671357;84;21306;-78
2022/06/17 08:46:52;;;;;;;1.80;0.10;;;;;;;25.83;26.65;100250.43;1687469;84;21512;-83
2022/06/17 08:49:52;;;;;;;0.20;0.10;;;;;;;25.86;26.51;100259.95;1676735;83;21159;-76
2022/06/17 08:52:39;;;;;;;1.60;0.10;;;;;;;25.69;26.20;100250.31;1683647;85;21090;-77
2022/06/17 08:55:20;;;;;;;1.77;0.10;;;;;;;25.57;26.85;100256.75;1682957;83;21086;-76
2022/06/17 08:58:08;;;;;;;2.85;0.17;;;;;;;25.66;27.29;100245.45;1685279;83;21519;-75
2022/06/17 09:00:47;;;;;;;1.30;0.20;;;;;;;25.90;26.98;100245.96;1679563;84;21051;-74
2022/06/17 09:03:30;;;;;;;1.05;0.30;;;;;;;25.98;26.59;100245.36;1672278;84;21047;-80
2022/06/17 09:06:17;;;;;;;0.95;0.20;;;;;;;26.01;26.52;100240.66;1662619;84;21084;-76
2022/06/17 09:09:18;;;;;;;0.30;0.23;;;;;;;26.03;26.34;100246.63;1656391;84;21040;-77
2022/06/17 09:12:13;;;;;;;0.62;0.10;;;;;;;26.06;25.28;100241.16;1659603;83;21057;-79
2022/06/17 09:15:19;;;;;;;0.25;0.15;;;;;;;26.08;25.33;100243.03;1618552;85;21120;-76
2022/06/17 09:18:18;;;;;;;0.20;0.17;;;;;;;26.03;25.53;100247.47;1668087;85;21541;-75
2022/06/17 09:20:49;;;;;;;0.37;0.10;;;;;;;25.78;26.31;100237.64;1654469;85;21119;-73
2022/06/17 09:23:23;;;;;;;0.57;0.10;;;;;;;25.62;26.68;100227.48;1665785;84;21493;-78
2022/06/17 09:25:50;;;;;;;3.10;0.10;;;;;;;25.66;26.83;100225.55;1683989;84;21294;-77
2022/06/17 09:28:25;;;;;;;1.35;0.20;;;;;;;25.72;27.10;100227.91;1687720;83;21056;-76
2022/06/17 09:31:01;;;;;;;2.72;0.20;;;;;;;25.87;27.39;100230.19;1691084;84;20997;-74
2022/06/17 09:33:42;;;;;;;1.57;0.10;;;;;;;26.04;27.36;100230.52;1687349;83;20995;-75
2022/06/17 09:36:13;;;;;;;1.35;0.20;;;;;;;26.22;27.14;100221.52;1672870;84;21086;-77
2022/06/17 09:38:52;;;;;;;2.08;0.10;;;;;;;26.40;26.82;100229.43;1672253;84;21123;-74
2022/06/17 09:41:29;;;;;;;0.60;0.10;;;;;;;26.49;26.39;100222.75;1670959;84;21058;-79
2022/06/17 09:44:18;;;;;;;0.30;0.10;;;;;;;26.49;26.49;100225.48;1669064;84;21077;-78
2022/06/17 09:47:29;;;;;;;1.05;0.20;;;;;;;26.51;26.43;100226.55;1689242;84;21086;-79
2022/06/17 09:50:01;;;;;;;3.60;0.10;;;;;;;26.53;26.42;100218.87;1611770;87;21621;-74
2022/06/17 09:52:34;;;;;;;3.10;0.20;;;;;;;26.61;26.38;100217.64;1609477;87;21614;-74
2022/06/17 09:55:16;;;;;;;1.05;0.17;;;;;;;26.55;26.18;100220.19;1657992;84;21527;-74
2022/06/17 09:58:00;;;;;;;2.50;0.35;;;;;;;26.42;26.44;100212.74;1686466;84;21032;-82
2022/06/17 10:02:44;;;;;;;0.30;0.30;;;;;;;26.37;26.15;100211.45;1761503;79;23525;-78
2022/06/17 10:05:32;;;;;;;0.95;0.23;;;;;;;26.22;26.20;100211.96;1730720;81;21020;-86
2022/06/17 10:08:29;;;;;;;2.27;0.40;;;;;;;26.16;25.87;100215.05;1735147;81;21038;-76
2022/06/17 10:11:10;;;;;;;5.72;0.20;;;;;;;26.06;26.15;100207.82;1709557;82;21053;-80
2022/06/17 10:14:21;;;;;;;3.50;0.62;;;;;;;26.09;26.01;100209.14;1704637;82;21033;-76
2022/06/17 10:20:33;;;;;;;2.83;0.13;;;;;;;26.28;26.76;100206.42;1698468;83;21069;-83
2022/06/17 10:23:31;;;;;;;0.95;0.20;;;;;;;26.49;26.42;100209.65;1706357;82;21064;-77
2022/06/17 10:26:06;;;;;;;6.05;0.20;;;;;;;26.56;26.20;100214.16;1696056;83;21607;-78
2022/06/17 10:28:53;;;;;;;0.70;0.10;;;;;;;26.54;26.54;100199.98;1703917;83;21081;-78
2022/06/17 10:31:40;;;;;;;1.20;0.20;;;;;;;26.53;26.25;100197.00;1700289;83;21050;-76
2022/06/17 10:34:24;;;;;;;2.60;0.15;;;;;;;26.44;26.49;100202.33;1658466;83;22198;-76
2022/06/17 10:36:54;;;;;;;1.22;0.10;;;;;;;26.34;26.43;100194.30;1670804;84;21105;-74
2022/06/17 10:39:25;;;;;;;1.12;0.30;;;;;;;26.21;26.64;100191.77;1701261;83;21081;-78
2022/06/17 10:41:52;;;;;;;0.68;0.23;;;;;;;26.20;26.87;100196.42;1700137;82;21104;-76
2022/06/17 10:44:23;;;;;;;2.98;0.20;;;;;;;26.28;27.11;100196.87;1705602;82;21126;-74
2022/06/17 10:46:58;;;;;;;1.57;0.10;;;;;;;26.34;27.23;100198.41;1723983;81;21050;-75
2022/06/17 10:49:33;;;;;;;0.85;0.30;;;;;;;26.37;26.94;100193.69;1734106;81;21025;-75
2022/06/17 10:52:02;;;;;;;0.85;0.10;;;;;;;26.41;26.93;100187.34;1730998;82;21073;-80
2022/06/17 10:54:34;;;;;;;0.93;0.20;;;;;;;26.46;27.03;100188.38;1729102;82;21093;-74
2022/06/17 10:57:10;;;;;;;1.60;0.20;;;;;;;26.54;27.03;100176.74;1706072;81;21022;-75
2022/06/17 10:59:41;;;;;;;0.80;0.20;;;;;;;26.65;26.63;100175.48;1704113;83;21113;-82
2022/06/17 11:02:29;;;;;;;0.42;0.20;;;;;;;26.73;26.61;100180.82;1711590;81;21038;-83
2022/06/17 11:05:00;;;;;;;3.02;0.30;;;;;;;26.74;26.35;100181.09;1707414;82;21641;-74
2022/06/17 11:07:35;;;;;;;1.47;0.20;;;;;;;26.71;26.83;100184.41;1718443;82;21002;-78
2022/06/17 11:10:16;;;;;;;1.42;0.25;;;;;;;26.65;27.17;100176.86;1716578;82;21027;-80
2022/06/17 11:12:50;;;;;;;1.55;0.40;;;;;;;26.64;27.12;100177.98;1687238;83;21073;-74
2022/06/17 11:15:30;;;;;;;0.20;0.17;;;;;;;26.54;27.64;100166.64;1667448;84;21569;-74
2022/06/17 11:18:08;;;;;;;1.45;0.15;;;;;;;26.47;27.79;100178.52;1681551;84;21646;-75
2022/06/17 11:20:38;;;;;;;1.32;0.25;;;;;;;26.39;27.67;100173.17;1688678;83;21082;-73
2022/06/17 11:23:19;;;;;;;3.30;0.82;;;;;;;26.30;28.11;100176.89;1718576;82;21125;-76
2022/06/17 11:25:46;;;;;;;1.45;0.20;;;;;;;26.20;27.72;100179.20;1683907;83;21087;-79
2022/06/17 11:28:25;;;;;;;1.02;0.20;;;;;;;26.12;28.28;100176.59;1720099;82;21048;-76
2022/06/17 11:31:00;;;;;;;2.92;0.40;;;;;;;26.09;28.47;100179.09;1697238;82;21055;-81
2022/06/17 11:33:40;;;;;;;0.78;0.55;;;;;;;26.03;28.26;100181.09;1718612;82;21065;-79
2022/06/17 11:36:18;;;;;;;1.75;0.20;;;;;;;25.95;28.44;100176.30;1690257;83;21035;-75
2022/06/17 11:38:45;;;;;;;1.15;0.20;;;;;;;25.89;28.52;100174.73;1678284;83;21102;-75
2022/06/17 11:41:26;;;;;;;0.40;0.20;;;;;;;25.90;28.41;100177.70;1699542;83;21140;-74
2022/06/17 11:43:55;;;;;;;1.25;0.30;;;;;;;25.88;28.61;100178.55;1695598;82;21075;-71
2022/06/17 11:46:27;;;;;;;1.85;0.55;;;;;;;25.84;29.17;100173.70;1722216;83;21034;-73
2022/06/17 11:49:02;;;;;;;2.05;0.62;;;;;;;25.78;30.26;100173.48;1728833;82;21022;-74
2022/06/17 11:51:36;;;;;;;3.52;0.60;;;;;;;25.69;30.82;100175.25;1714976;82;21022;-72
2022/06/17 11:54:06;;;;;;;1.35;1.07;;;;;;;25.65;31.06;100168.76;1724561;83;21018;-79
2022/06/17 11:56:39;;;;;;;1.42;0.88;;;;;;;25.61;31.75;100170.45;1682830;83;21078;-76
2022/06/17 11:59:20;;;;;;;4.37;2.05;;;;;;;25.57;31.54;100178.41;1674349;84;21059;-72
2022/06/17 12:01:58;;;;;;;6.17;1.67;;;;;;;25.51;31.74;100178.78;1693638;82;22282;-73
2022/06/17 12:04:44;;;;;;;6.70;1.82;;;;;;;25.45;32.15;100177.48;1704300;82;21053;-72
2022/06/17 12:07:48;;;;;;;4.35;1.92;;;;;;;25.43;32.53;100170.14;1688061;82;21680;-75
2022/06/17 12:10:30;;;;;;;4.67;1.95;;;;;;;25.47;32.31;100180.45;1684842;82;21584;-77